sensor_id;sensor_type;location;lat;lon;timestamp;temperature;humidity
52030;DHT22;38043;53.224;6.580;2023-02-12T00:02:06;6.60;99.90
52030;DHT22;38043;53.224;6.580;2023-02-12T00:04:32;6.60;99.90
52030;DHT22;38043;53.224;6.580;2023-02-12T00:06:58;6.60;99.90
52030;DHT22;38043;53.224;6.580;2023-02-12T00:09:24;6.50;99.90
52030;DHT22;38043;53.224;6.580;2023-02-12T00:11:50;6.70;99.90
52030;DHT22;38043;53.224;6.580;2023-02-12T00:14:16;6.60;99.90
52030;DHT22;38043;53.224;6.580;2023-02-12T00:16:42;6.50;99.90
52030;DHT22;38043;53.224;6.580;2023-02-12T00:19:08;6.50;99.90
52030;DHT22;38043;53.224;6.580;2023-02-12T00:21:34;6.50;99.90
52030;DHT22;38043;53.224;6.580;2023-02-12T00:24:00;6.50;99.90
52030;DHT22;38043;53.224;6.580;2023-02-12T00:26:26;6.50;99.90
52030;DHT22;38043;53.224;6.580;2023-02-12T00:28:52;6.60;99.90
52030;DHT22;38043;53.224;6.580;2023-02-12T00:31:21;6.50;99.90
52030;DHT22;38043;53.224;6.580;2023-02-12T00:33:47;6.50;99.90
52030;DHT22;38043;53.224;6.580;2023-02-12T00:36:16;6.50;99.90
52030;DHT22;38043;53.224;6.580;2023-02-12T00:38:43;6.50;99.90
52030;DHT22;38043;53.224;6.580;2023-02-12T00:41:09;6.50;99.90
52030;DHT22;38043;53.224;6.580;2023-02-12T00:43:35;6.40;99.90
52030;DHT22;38043;53.224;6.580;2023-02-12T00:46:00;6.50;99.90
52030;DHT22;38043;53.224;6.580;2023-02-12T00:48:26;6.50;99.90
52030;DHT22;38043;53.224;6.580;2023-02-12T00:50:52;6.50;99.90
52030;DHT22;38043;53.224;6.580;2023-02-12T00:53:17;6.50;99.90
52030;DHT22;38043;53.224;6.580;2023-02-12T00:55:44;6.50;99.90
52030;DHT22;38043;53.224;6.580;2023-02-12T00:58:10;6.50;99.90
52030;DHT22;38043;53.224;6.580;2023-02-12T01:00:36;6.50;99.90
52030;DHT22;38043;53.224;6.580;2023-02-12T01:03:02;6.50;99.90
52030;DHT22;38043;53.224;6.580;2023-02-12T01:05:28;6.50;99.90
52030;DHT22;38043;53.224;6.580;2023-02-12T01:07:55;6.50;99.90
52030;DHT22;38043;53.224;6.580;2023-02-12T01:10:20;6.50;99.90
52030;DHT22;38043;53.224;6.580;2023-02-12T01:12:46;6.50;99.90
52030;DHT22;38043;53.224;6.580;2023-02-12T01:15:13;6.50;99.90
52030;DHT22;38043;53.224;6.580;2023-02-12T01:17:39;6.50;99.90
52030;DHT22;38043;53.224;6.580;2023-02-12T01:20:06;6.60;99.90
52030;DHT22;38043;53.224;6.580;2023-02-12T01:22:34;6.50;99.90
52030;DHT22;38043;53.224;6.580;2023-02-12T01:25:01;6.40;99.90
52030;DHT22;38043;53.224;6.580;2023-02-12T01:27:27;6.40;99.90
52030;DHT22;38043;53.224;6.580;2023-02-12T01:29:52;6.40;99.90
52030;DHT22;38043;53.224;6.580;2023-02-12T01:32:18;6.50;99.90
52030;DHT22;38043;53.224;6.580;2023-02-12T01:34:43;6.40;99.90
52030;DHT22;38043;53.224;6.580;2023-02-12T01:37:09;6.40;99.90
52030;DHT22;38043;53.224;6.580;2023-02-12T01:39:35;6.40;99.90
52030;DHT22;38043;53.224;6.580;2023-02-12T01:42:01;6.40;99.90
52030;DHT22;38043;53.224;6.580;2023-02-12T01:44:30;6.40;99.90
52030;DHT22;38043;53.224;6.580;2023-02-12T01:47:01;6.30;99.90
52030;DHT22;38043;53.224;6.580;2023-02-12T01:49:40;6.30;99.90
52030;DHT22;38043;53.224;6.580;2023-02-12T01:52:17;6.30;99.90
52030;DHT22;38043;53.224;6.580;2023-02-12T01:54:46;6.30;99.90
52030;DHT22;38043;53.224;6.580;2023-02-12T01:57:13;6.20;99.90
52030;DHT22;38043;53.224;6.580;2023-02-12T01:59:43;6.20;99.90
52030;DHT22;38043;53.224;6.580;2023-02-12T02:02:09;6.10;99.90
52030;DHT22;38043;53.224;6.580;2023-02-12T02:04:42;6.10;99.90
52030;DHT22;38043;53.224;6.580;2023-02-12T02:07:09;6.10;99.90
52030;DHT22;38043;53.224;6.580;2023-02-12T02:09:38;6.10;99.90
52030;DHT22;38043;53.224;6.580;2023-02-12T02:12:04;6.10;99.90
52030;DHT22;38043;53.224;6.580;2023-02-12T02:14:52;6.10;99.90
52030;DHT22;38043;53.224;6.580;2023-02-12T02:17:50;6.10;99.90
52030;DHT22;38043;53.224;6.580;2023-02-12T02:34:28;6.00;99.90
52030;DHT22;38043;53.224;6.580;2023-02-12T02:37:03;6.10;99.90
52030;DHT22;38043;53.224;6.580;2023-02-12T02:39:36;6.10;99.90
52030;DHT22;38043;53.224;6.580;2023-02-12T02:44:59;6.10;99.90
52030;DHT22;38043;53.224;6.580;2023-02-12T02:50:27;6.10;99.90
52030;DHT22;38043;53.224;6.580;2023-02-12T02:53:03;6.10;99.90
52030;DHT22;38043;53.224;6.580;2023-02-12T02:55:36;6.10;99.90
52030;DHT22;38043;53.224;6.580;2023-02-12T02:58:09;6.10;99.90
52030;DHT22;38043;53.224;6.580;2023-02-12T03:00:37;6.10;99.90
52030;DHT22;38043;53.224;6.580;2023-02-12T03:03:14;6.10;99.90
52030;DHT22;38043;53.224;6.580;2023-02-12T03:05:45;6.20;99.90
52030;DHT22;38043;53.224;6.580;2023-02-12T03:08:19;6.10;99.90
52030;DHT22;38043;53.224;6.580;2023-02-12T03:10:54;6.10;99.90
52030;DHT22;38043;53.224;6.580;2023-02-12T03:13:35;6.10;99.90
52030;DHT22;38043;53.224;6.580;2023-02-12T03:16:34;6.10;99.90
52030;DHT22;38043;53.224;6.580;2023-02-12T03:19:18;6.10;99.90
52030;DHT22;38043;53.224;6.580;2023-02-12T03:21:54;6.10;99.90
52030;DHT22;38043;53.224;6.580;2023-02-12T03:26:57;6.10;99.90
52030;DHT22;38043;53.224;6.580;2023-02-12T03:29:25;6.10;99.90
52030;DHT22;38043;53.224;6.580;2023-02-12T03:34:31;6.10;99.90
52030;DHT22;38043;53.224;6.580;2023-02-12T03:37:21;6.10;99.90
52030;DHT22;38043;53.224;6.580;2023-02-12T03:40:05;6.10;99.90
52030;DHT22;38043;53.224;6.580;2023-02-12T03:42:40;6.00;99.90
52030;DHT22;38043;53.224;6.580;2023-02-12T03:45:28;6.00;99.90
52030;DHT22;38043;53.224;6.580;2023-02-12T03:48:20;6.00;99.90
52030;DHT22;38043;53.224;6.580;2023-02-12T03:53:26;6.10;99.90
52030;DHT22;38043;53.224;6.580;2023-02-12T03:55:59;6.10;99.90
52030;DHT22;38043;53.224;6.580;2023-02-12T03:58:28;6.00;99.90
52030;DHT22;38043;53.224;6.580;2023-02-12T04:00:55;6.00;99.90
52030;DHT22;38043;53.224;6.580;2023-02-12T04:03:21;6.00;99.90
52030;DHT22;38043;53.224;6.580;2023-02-12T04:05:47;6.10;99.90
52030;DHT22;38043;53.224;6.580;2023-02-12T04:08:13;6.00;99.90
52030;DHT22;38043;53.224;6.580;2023-02-12T04:10:55;6.00;99.90
52030;DHT22;38043;53.224;6.580;2023-02-12T04:13:38;6.00;99.90
52030;DHT22;38043;53.224;6.580;2023-02-12T04:16:25;5.90;99.90
52030;DHT22;38043;53.224;6.580;2023-02-12T04:18:54;6.00;99.90
52030;DHT22;38043;53.224;6.580;2023-02-12T04:21:34;5.90;99.90
52030;DHT22;38043;53.224;6.580;2023-02-12T04:24:16;5.90;99.90
52030;DHT22;38043;53.224;6.580;2023-02-12T04:27:10;5.90;99.90
52030;DHT22;38043;53.224;6.580;2023-02-12T04:29:54;5.90;99.90
52030;DHT22;38043;53.224;6.580;2023-02-12T04:32:38;5.80;99.90
52030;DHT22;38043;53.224;6.580;2023-02-12T04:35:29;5.90;99.90
52030;DHT22;38043;53.224;6.580;2023-02-12T04:40:30;5.80;99.90
52030;DHT22;38043;53.224;6.580;2023-02-12T04:42:57;5.80;99.90
52030;DHT22;38043;53.224;6.580;2023-02-12T04:45:31;5.70;99.90
52030;DHT22;38043;53.224;6.580;2023-02-12T04:47:58;5.80;99.90
52030;DHT22;38043;53.224;6.580;2023-02-12T04:50:25;5.70;99.90
52030;DHT22;38043;53.224;6.580;2023-02-12T04:52:51;5.70;99.90
52030;DHT22;38043;53.224;6.580;2023-02-12T04:55:18;5.70;99.90
52030;DHT22;38043;53.224;6.580;2023-02-12T04:57:43;5.70;99.90
52030;DHT22;38043;53.224;6.580;2023-02-12T05:00:12;5.70;99.90
52030;DHT22;38043;53.224;6.580;2023-02-12T05:02:38;5.70;99.90
52030;DHT22;38043;53.224;6.580;2023-02-12T05:05:04;5.70;99.90
52030;DHT22;38043;53.224;6.580;2023-02-12T05:07:30;5.70;99.90
52030;DHT22;38043;53.224;6.580;2023-02-12T05:09:56;5.60;99.90
52030;DHT22;38043;53.224;6.580;2023-02-12T05:12:21;5.60;99.90
52030;DHT22;38043;53.224;6.580;2023-02-12T05:14:47;5.60;99.90
52030;DHT22;38043;53.224;6.580;2023-02-12T05:17:13;5.60;99.90
52030;DHT22;38043;53.224;6.580;2023-02-12T05:19:38;5.60;99.90
52030;DHT22;38043;53.224;6.580;2023-02-12T05:22:04;5.60;99.90
52030;DHT22;38043;53.224;6.580;2023-02-12T05:24:30;5.60;99.90
52030;DHT22;38043;53.224;6.580;2023-02-12T05:26:55;5.70;99.90
52030;DHT22;38043;53.224;6.580;2023-02-12T05:29:21;5.60;99.90
52030;DHT22;38043;53.224;6.580;2023-02-12T05:31:47;5.60;99.90
52030;DHT22;38043;53.224;6.580;2023-02-12T05:34:12;5.60;99.90
52030;DHT22;38043;53.224;6.580;2023-02-12T05:36:39;5.60;99.90
52030;DHT22;38043;53.224;6.580;2023-02-12T05:39:05;5.70;99.90
52030;DHT22;38043;53.224;6.580;2023-02-12T05:41:31;5.70;99.90
52030;DHT22;38043;53.224;6.580;2023-02-12T05:44:00;5.50;99.90
52030;DHT22;38043;53.224;6.580;2023-02-12T05:46:26;5.50;99.90
52030;DHT22;38043;53.224;6.580;2023-02-12T05:48:52;5.50;99.90
52030;DHT22;38043;53.224;6.580;2023-02-12T05:51:20;5.50;99.90
52030;DHT22;38043;53.224;6.580;2023-02-12T05:53:47;5.50;99.90
52030;DHT22;38043;53.224;6.580;2023-02-12T05:56:16;5.50;99.90
52030;DHT22;38043;53.224;6.580;2023-02-12T05:58:43;5.50;99.90
52030;DHT22;38043;53.224;6.580;2023-02-12T06:01:12;5.50;99.90
52030;DHT22;38043;53.224;6.580;2023-02-12T06:03:38;5.50;99.90
52030;DHT22;38043;53.224;6.580;2023-02-12T06:06:03;5.50;99.90
52030;DHT22;38043;53.224;6.580;2023-02-12T06:08:29;5.40;99.90
52030;DHT22;38043;53.224;6.580;2023-02-12T06:11:01;5.50;99.90
52030;DHT22;38043;53.224;6.580;2023-02-12T06:13:28;5.50;99.90
52030;DHT22;38043;53.224;6.580;2023-02-12T06:15:54;5.40;99.90
52030;DHT22;38043;53.224;6.580;2023-02-12T06:18:19;5.50;99.90
52030;DHT22;38043;53.224;6.580;2023-02-12T06:20:45;5.40;99.90
52030;DHT22;38043;53.224;6.580;2023-02-12T06:23:11;5.40;99.90
52030;DHT22;38043;53.224;6.580;2023-02-12T06:25:36;5.40;99.90
52030;DHT22;38043;53.224;6.580;2023-02-12T06:28:02;5.40;99.90
52030;DHT22;38043;53.224;6.580;2023-02-12T06:30:28;5.40;99.90
52030;DHT22;38043;53.224;6.580;2023-02-12T06:33:03;5.40;99.90
52030;DHT22;38043;53.224;6.580;2023-02-12T06:35:29;5.40;99.90
52030;DHT22;38043;53.224;6.580;2023-02-12T06:37:55;5.50;99.90
52030;DHT22;38043;53.224;6.580;2023-02-12T06:40:21;5.50;99.90
52030;DHT22;38043;53.224;6.580;2023-02-12T06:42:46;5.50;99.90
52030;DHT22;38043;53.224;6.580;2023-02-12T06:45:12;5.50;99.90
52030;DHT22;38043;53.224;6.580;2023-02-12T06:47:38;5.40;99.90
52030;DHT22;38043;53.224;6.580;2023-02-12T06:50:04;5.50;99.90
52030;DHT22;38043;53.224;6.580;2023-02-12T06:52:30;5.50;99.90
52030;DHT22;38043;53.224;6.580;2023-02-12T06:54:55;5.60;99.90
52030;DHT22;38043;53.224;6.580;2023-02-12T06:57:21;5.50;99.90
52030;DHT22;38043;53.224;6.580;2023-02-12T06:59:48;5.40;99.90
52030;DHT22;38043;53.224;6.580;2023-02-12T07:02:14;5.50;99.90
52030;DHT22;38043;53.224;6.580;2023-02-12T07:04:40;5.40;99.90
52030;DHT22;38043;53.224;6.580;2023-02-12T07:07:05;5.50;99.90
52030;DHT22;38043;53.224;6.580;2023-02-12T07:09:31;5.50;99.90
52030;DHT22;38043;53.224;6.580;2023-02-12T07:11:58;5.50;99.90
52030;DHT22;38043;53.224;6.580;2023-02-12T07:14:24;5.50;99.90
52030;DHT22;38043;53.224;6.580;2023-02-12T07:16:51;5.60;99.90
52030;DHT22;38043;53.224;6.580;2023-02-12T07:19:16;5.50;99.90
52030;DHT22;38043;53.224;6.580;2023-02-12T07:21:42;5.50;99.90
52030;DHT22;38043;53.224;6.580;2023-02-12T07:24:10;5.50;99.90
52030;DHT22;38043;53.224;6.580;2023-02-12T07:26:39;5.50;99.90
52030;DHT22;38043;53.224;6.580;2023-02-12T07:29:05;5.50;99.90
52030;DHT22;38043;53.224;6.580;2023-02-12T07:31:30;5.60;99.90
52030;DHT22;38043;53.224;6.580;2023-02-12T07:33:57;5.60;99.90
52030;DHT22;38043;53.224;6.580;2023-02-12T07:36:25;5.60;99.90
52030;DHT22;38043;53.224;6.580;2023-02-12T07:38:51;5.60;99.90
52030;DHT22;38043;53.224;6.580;2023-02-12T07:41:26;5.60;99.90
52030;DHT22;38043;53.224;6.580;2023-02-12T07:43:54;5.60;99.90
52030;DHT22;38043;53.224;6.580;2023-02-12T07:46:21;5.70;99.90
52030;DHT22;38043;53.224;6.580;2023-02-12T07:48:50;5.80;99.90
52030;DHT22;38043;53.224;6.580;2023-02-12T07:51:17;5.70;99.90
52030;DHT22;38043;53.224;6.580;2023-02-12T07:53:46;5.70;99.90
52030;DHT22;38043;53.224;6.580;2023-02-12T07:56:22;5.70;99.90
52030;DHT22;38043;53.224;6.580;2023-02-12T07:58:50;5.70;99.90
52030;DHT22;38043;53.224;6.580;2023-02-12T08:01:24;5.80;99.90
52030;DHT22;38043;53.224;6.580;2023-02-12T08:03:56;5.80;99.90
52030;DHT22;38043;53.224;6.580;2023-02-12T08:06:25;5.80;99.90
52030;DHT22;38043;53.224;6.580;2023-02-12T08:08:53;5.90;99.90
52030;DHT22;38043;53.224;6.580;2023-02-12T08:11:20;5.90;99.90
52030;DHT22;38043;53.224;6.580;2023-02-12T08:13:46;5.90;99.90
52030;DHT22;38043;53.224;6.580;2023-02-12T08:16:14;6.00;99.90
52030;DHT22;38043;53.224;6.580;2023-02-12T08:18:41;6.10;99.90
52030;DHT22;38043;53.224;6.580;2023-02-12T08:21:09;6.10;99.90
52030;DHT22;38043;53.224;6.580;2023-02-12T08:23:35;6.10;99.90
52030;DHT22;38043;53.224;6.580;2023-02-12T08:26:12;6.10;99.90
52030;DHT22;38043;53.224;6.580;2023-02-12T08:28:42;6.10;99.90
52030;DHT22;38043;53.224;6.580;2023-02-12T08:31:16;6.20;99.90
52030;DHT22;38043;53.224;6.580;2023-02-12T08:33:44;6.20;99.90
52030;DHT22;38043;53.224;6.580;2023-02-12T08:36:13;6.30;99.90
52030;DHT22;38043;53.224;6.580;2023-02-12T08:38:40;6.30;99.90
52030;DHT22;38043;53.224;6.580;2023-02-12T08:41:08;6.30;99.90
52030;DHT22;38043;53.224;6.580;2023-02-12T08:43:35;6.40;99.90
52030;DHT22;38043;53.224;6.580;2023-02-12T08:46:06;6.30;99.90
52030;DHT22;38043;53.224;6.580;2023-02-12T08:48:32;6.40;99.90
52030;DHT22;38043;53.224;6.580;2023-02-12T08:51:09;6.40;99.90
52030;DHT22;38043;53.224;6.580;2023-02-12T08:53:36;6.50;99.90
52030;DHT22;38043;53.224;6.580;2023-02-12T08:56:03;6.50;99.90
52030;DHT22;38043;53.224;6.580;2023-02-12T08:58:28;6.50;99.90
52030;DHT22;38043;53.224;6.580;2023-02-12T09:00:55;6.60;99.90
52030;DHT22;38043;53.224;6.580;2023-02-12T09:03:21;6.60;99.90
52030;DHT22;38043;53.224;6.580;2023-02-12T09:05:47;6.60;99.90
52030;DHT22;38043;53.224;6.580;2023-02-12T09:08:13;6.70;99.90
52030;DHT22;38043;53.224;6.580;2023-02-12T09:10:42;6.70;99.90
52030;DHT22;38043;53.224;6.580;2023-02-12T09:13:09;6.70;99.90
52030;DHT22;38043;53.224;6.580;2023-02-12T09:15:43;6.70;99.90
52030;DHT22;38043;53.224;6.580;2023-02-12T09:18:12;6.90;99.90
52030;DHT22;38043;53.224;6.580;2023-02-12T09:20:40;6.80;99.90
52030;DHT22;38043;53.224;6.580;2023-02-12T09:23:07;6.90;99.90
52030;DHT22;38043;53.224;6.580;2023-02-12T09:25:34;6.90;99.90
52030;DHT22;38043;53.224;6.580;2023-02-12T09:28:01;7.00;99.90
52030;DHT22;38043;53.224;6.580;2023-02-12T09:30:26;7.00;99.90
52030;DHT22;38043;53.224;6.580;2023-02-12T09:32:52;7.10;99.90
52030;DHT22;38043;53.224;6.580;2023-02-12T09:35:18;7.20;99.90
52030;DHT22;38043;53.224;6.580;2023-02-12T09:37:44;7.30;99.90
52030;DHT22;38043;53.224;6.580;2023-02-12T09:40:20;7.30;99.90
52030;DHT22;38043;53.224;6.580;2023-02-12T09:46:15;7.40;99.90
52030;DHT22;38043;53.224;6.580;2023-02-12T09:49:08;7.50;99.90
52030;DHT22;38043;53.224;6.580;2023-02-12T09:51:37;7.50;99.90
52030;DHT22;38043;53.224;6.580;2023-02-12T09:54:15;7.50;99.90
52030;DHT22;38043;53.224;6.580;2023-02-12T09:57:03;7.50;99.90
52030;DHT22;38043;53.224;6.580;2023-02-12T09:59:32;7.60;99.90
52030;DHT22;38043;53.224;6.580;2023-02-12T10:01:59;7.60;99.90
52030;DHT22;38043;53.224;6.580;2023-02-12T10:04:25;7.60;99.90
52030;DHT22;38043;53.224;6.580;2023-02-12T10:07:06;7.70;99.90
52030;DHT22;38043;53.224;6.580;2023-02-12T10:09:36;7.70;99.90
52030;DHT22;38043;53.224;6.580;2023-02-12T10:12:11;7.70;99.90
52030;DHT22;38043;53.224;6.580;2023-02-12T10:27:53;8.10;99.90
52030;DHT22;38043;53.224;6.580;2023-02-12T10:30:23;8.10;99.90
52030;DHT22;38043;53.224;6.580;2023-02-12T10:32:59;8.10;99.90
52030;DHT22;38043;53.224;6.580;2023-02-12T10:35:27;8.10;99.90
52030;DHT22;38043;53.224;6.580;2023-02-12T10:38:21;8.20;99.90
52030;DHT22;38043;53.224;6.580;2023-02-12T10:40:48;8.20;99.90
52030;DHT22;38043;53.224;6.580;2023-02-12T10:43:15;8.20;99.90
52030;DHT22;38043;53.224;6.580;2023-02-12T10:45:42;8.30;99.90
52030;DHT22;38043;53.224;6.580;2023-02-12T10:48:32;8.30;99.90
52030;DHT22;38043;53.224;6.580;2023-02-12T10:53:36;8.50;99.90
52030;DHT22;38043;53.224;6.580;2023-02-12T10:58:50;8.60;99.90
52030;DHT22;38043;53.224;6.580;2023-02-12T11:01:17;8.70;99.90
52030;DHT22;38043;53.224;6.580;2023-02-12T11:03:44;8.70;99.90
52030;DHT22;38043;53.224;6.580;2023-02-12T11:06:17;8.80;99.90
52030;DHT22;38043;53.224;6.580;2023-02-12T11:08:43;8.80;99.90
52030;DHT22;38043;53.224;6.580;2023-02-12T11:11:30;8.90;99.90
52030;DHT22;38043;53.224;6.580;2023-02-12T11:14:15;9.10;99.90
52030;DHT22;38043;53.224;6.580;2023-02-12T11:16:51;9.20;99.90
52030;DHT22;38043;53.224;6.580;2023-02-12T11:19:27;9.30;99.90
52030;DHT22;38043;53.224;6.580;2023-02-12T11:22:06;9.40;99.90
52030;DHT22;38043;53.224;6.580;2023-02-12T11:24:33;9.50;99.90
52030;DHT22;38043;53.224;6.580;2023-02-12T11:29:41;9.50;99.90
52030;DHT22;38043;53.224;6.580;2023-02-12T11:32:08;9.50;99.90
52030;DHT22;38043;53.224;6.580;2023-02-12T11:34:39;9.50;99.90
52030;DHT22;38043;53.224;6.580;2023-02-12T11:37:13;9.40;99.90
52030;DHT22;38043;53.224;6.580;2023-02-12T11:39:45;9.40;99.90
52030;DHT22;38043;53.224;6.580;2023-02-12T11:42:19;9.40;99.90
52030;DHT22;38043;53.224;6.580;2023-02-12T11:44:58;9.40;99.90
52030;DHT22;38043;53.224;6.580;2023-02-12T11:47:32;9.50;99.90
52030;DHT22;38043;53.224;6.580;2023-02-12T11:52:31;9.60;99.90
52030;DHT22;38043;53.224;6.580;2023-02-12T11:57:48;9.80;99.90
52030;DHT22;38043;53.224;6.580;2023-02-12T12:00:36;9.90;99.90
52030;DHT22;38043;53.224;6.580;2023-02-12T12:03:27;10.00;99.90
52030;DHT22;38043;53.224;6.580;2023-02-12T12:06:05;10.10;99.90
52030;DHT22;38043;53.224;6.580;2023-02-12T12:11:19;10.20;99.90
52030;DHT22;38043;53.224;6.580;2023-02-12T12:13:56;10.30;99.90
52030;DHT22;38043;53.224;6.580;2023-02-12T12:22:38;10.20;99.90
52030;DHT22;38043;53.224;6.580;2023-02-12T12:31:03;10.00;99.90
52030;DHT22;38043;53.224;6.580;2023-02-12T12:33:49;9.90;99.90
52030;DHT22;38043;53.224;6.580;2023-02-12T12:39:15;9.70;99.90
52030;DHT22;38043;53.224;6.580;2023-02-12T12:42:32;9.70;99.90
52030;DHT22;38043;53.224;6.580;2023-02-12T12:48:32;9.70;99.90
52030;DHT22;38043;53.224;6.580;2023-02-12T12:51:25;9.80;99.90
52030;DHT22;38043;53.224;6.580;2023-02-12T12:56:37;9.90;99.90
52030;DHT22;38043;53.224;6.580;2023-02-12T13:05:00;9.90;99.90
52030;DHT22;38043;53.224;6.580;2023-02-12T13:13:05;9.80;99.90
52030;DHT22;38043;53.224;6.580;2023-02-12T13:15:54;9.80;99.90
52030;DHT22;38043;53.224;6.580;2023-02-12T13:18:57;9.70;99.90
52030;DHT22;38043;53.224;6.580;2023-02-12T13:21:41;9.60;99.90
52030;DHT22;38043;53.224;6.580;2023-02-12T13:24:15;9.60;99.90
52030;DHT22;38043;53.224;6.580;2023-02-12T13:26:52;9.50;99.90
52030;DHT22;38043;53.224;6.580;2023-02-12T13:29:26;9.40;99.90
52030;DHT22;38043;53.224;6.580;2023-02-12T13:32:00;9.40;99.90
52030;DHT22;38043;53.224;6.580;2023-02-12T13:34:28;9.30;99.90
52030;DHT22;38043;53.224;6.580;2023-02-12T13:36:59;9.40;99.90
52030;DHT22;38043;53.224;6.580;2023-02-12T13:47:29;9.30;99.90
52030;DHT22;38043;53.224;6.580;2023-02-12T13:52:45;9.30;99.90
52030;DHT22;38043;53.224;6.580;2023-02-12T14:01:15;9.30;99.90
52030;DHT22;38043;53.224;6.580;2023-02-12T14:09:30;9.30;99.90
52030;DHT22;38043;53.224;6.580;2023-02-12T14:11:59;9.40;99.90
52030;DHT22;38043;53.224;6.580;2023-02-12T14:14:39;9.40;99.90
52030;DHT22;38043;53.224;6.580;2023-02-12T14:24:54;9.30;99.90
52030;DHT22;38043;53.224;6.580;2023-02-12T14:41:15;9.20;99.90
52030;DHT22;38043;53.224;6.580;2023-02-12T14:54:47;8.90;99.90
52030;DHT22;38043;53.224;6.580;2023-02-12T14:57:36;8.90;99.90
52030;DHT22;38043;53.224;6.580;2023-02-12T15:08:42;8.80;99.90
52030;DHT22;38043;53.224;6.580;2023-02-12T15:11:19;8.80;99.90
52030;DHT22;38043;53.224;6.580;2023-02-12T15:13:51;8.80;99.90
52030;DHT22;38043;53.224;6.580;2023-02-12T15:19:38;8.80;99.90
52030;DHT22;38043;53.224;6.580;2023-02-12T15:22:22;8.70;99.90
52030;DHT22;38043;53.224;6.580;2023-02-12T15:24:48;8.70;99.90
52030;DHT22;38043;53.224;6.580;2023-02-12T15:27:15;8.70;99.90
52030;DHT22;38043;53.224;6.580;2023-02-12T15:29:45;8.70;99.90
52030;DHT22;38043;53.224;6.580;2023-02-12T15:32:30;8.70;99.90
52030;DHT22;38043;53.224;6.580;2023-02-12T15:34:56;8.60;99.90
52030;DHT22;38043;53.224;6.580;2023-02-12T15:37:25;8.70;99.90
52030;DHT22;38043;53.224;6.580;2023-02-12T15:39:55;8.60;99.90
52030;DHT22;38043;53.224;6.580;2023-02-12T15:42:30;8.60;99.90
52030;DHT22;38043;53.224;6.580;2023-02-12T15:47:41;8.60;99.90
52030;DHT22;38043;53.224;6.580;2023-02-12T15:50:17;8.50;99.90
52030;DHT22;38043;53.224;6.580;2023-02-12T15:52:45;8.60;99.90
52030;DHT22;38043;53.224;6.580;2023-02-12T15:55:17;8.60;99.90
52030;DHT22;38043;53.224;6.580;2023-02-12T15:57:48;8.60;99.90
52030;DHT22;38043;53.224;6.580;2023-02-12T16:00:39;8.50;99.90
52030;DHT22;38043;53.224;6.580;2023-02-12T16:03:22;8.50;99.90
52030;DHT22;38043;53.224;6.580;2023-02-12T16:05:49;8.50;99.90
52030;DHT22;38043;53.224;6.580;2023-02-12T16:08:16;8.50;99.90
52030;DHT22;38043;53.224;6.580;2023-02-12T16:10:45;8.50;99.90
52030;DHT22;38043;53.224;6.580;2023-02-12T16:13:20;8.40;99.90
52030;DHT22;38043;53.224;6.580;2023-02-12T16:16:11;8.40;99.90
52030;DHT22;38043;53.224;6.580;2023-02-12T16:18:41;8.50;99.90
52030;DHT22;38043;53.224;6.580;2023-02-12T16:21:20;8.50;99.90
52030;DHT22;38043;53.224;6.580;2023-02-12T16:23:49;8.40;99.90
52030;DHT22;38043;53.224;6.580;2023-02-12T16:26:21;8.40;99.90
52030;DHT22;38043;53.224;6.580;2023-02-12T16:28:49;8.40;99.90
52030;DHT22;38043;53.224;6.580;2023-02-12T16:31:16;8.30;99.90
52030;DHT22;38043;53.224;6.580;2023-02-12T16:33:46;8.30;99.90
52030;DHT22;38043;53.224;6.580;2023-02-12T16:38:50;8.30;99.90
52030;DHT22;38043;53.224;6.580;2023-02-12T16:43:47;8.30;99.90
52030;DHT22;38043;53.224;6.580;2023-02-12T16:46:15;8.30;99.90
52030;DHT22;38043;53.224;6.580;2023-02-12T16:48:50;8.20;99.90
52030;DHT22;38043;53.224;6.580;2023-02-12T16:51:35;8.20;99.90
52030;DHT22;38043;53.224;6.580;2023-02-12T16:54:03;8.20;99.90
52030;DHT22;38043;53.224;6.580;2023-02-12T16:56:31;8.20;99.90
52030;DHT22;38043;53.224;6.580;2023-02-12T16:58:59;8.20;99.90
52030;DHT22;38043;53.224;6.580;2023-02-12T17:01:31;8.20;99.90
52030;DHT22;38043;53.224;6.580;2023-02-12T17:03:59;8.20;99.90
52030;DHT22;38043;53.224;6.580;2023-02-12T17:06:30;8.20;99.90
52030;DHT22;38043;53.224;6.580;2023-02-12T17:08:56;8.20;99.90
52030;DHT22;38043;53.224;6.580;2023-02-12T17:11:23;8.20;99.90
52030;DHT22;38043;53.224;6.580;2023-02-12T17:13:50;8.20;99.90
52030;DHT22;38043;53.224;6.580;2023-02-12T17:16:16;8.20;99.90
52030;DHT22;38043;53.224;6.580;2023-02-12T17:18:42;8.30;99.90
52030;DHT22;38043;53.224;6.580;2023-02-12T17:21:21;8.20;99.90
52030;DHT22;38043;53.224;6.580;2023-02-12T17:23:48;8.20;99.90
52030;DHT22;38043;53.224;6.580;2023-02-12T17:26:14;8.20;99.90
52030;DHT22;38043;53.224;6.580;2023-02-12T17:28:39;8.20;99.90
52030;DHT22;38043;53.224;6.580;2023-02-12T17:31:09;8.20;99.90
52030;DHT22;38043;53.224;6.580;2023-02-12T17:33:35;8.20;99.90
52030;DHT22;38043;53.224;6.580;2023-02-12T17:36:01;8.10;99.90
52030;DHT22;38043;53.224;6.580;2023-02-12T17:38:26;8.10;99.90
52030;DHT22;38043;53.224;6.580;2023-02-12T17:40:52;8.10;99.90
52030;DHT22;38043;53.224;6.580;2023-02-12T17:43:18;8.10;99.90
52030;DHT22;38043;53.224;6.580;2023-02-12T17:45:44;8.10;99.90
52030;DHT22;38043;53.224;6.580;2023-02-12T17:48:11;8.10;99.90
52030;DHT22;38043;53.224;6.580;2023-02-12T17:50:38;8.00;99.90
52030;DHT22;38043;53.224;6.580;2023-02-12T17:53:04;8.10;99.90
52030;DHT22;38043;53.224;6.580;2023-02-12T17:55:31;8.00;99.90
52030;DHT22;38043;53.224;6.580;2023-02-12T17:57:57;8.00;99.90
52030;DHT22;38043;53.224;6.580;2023-02-12T18:00:24;8.00;99.90
52030;DHT22;38043;53.224;6.580;2023-02-12T18:02:50;8.00;99.90
52030;DHT22;38043;53.224;6.580;2023-02-12T18:05:16;8.00;99.90
52030;DHT22;38043;53.224;6.580;2023-02-12T18:07:42;8.00;99.90
52030;DHT22;38043;53.224;6.580;2023-02-12T18:10:08;8.00;99.90
52030;DHT22;38043;53.224;6.580;2023-02-12T18:12:34;8.00;99.90
52030;DHT22;38043;53.224;6.580;2023-02-12T18:15:02;8.00;99.90
52030;DHT22;38043;53.224;6.580;2023-02-12T18:17:28;7.90;99.90
52030;DHT22;38043;53.224;6.580;2023-02-12T18:19:54;8.00;99.90
52030;DHT22;38043;53.224;6.580;2023-02-12T18:22:20;7.90;99.90
52030;DHT22;38043;53.224;6.580;2023-02-12T18:24:46;8.10;99.90
52030;DHT22;38043;53.224;6.580;2023-02-12T18:27:12;7.90;99.90
52030;DHT22;38043;53.224;6.580;2023-02-12T18:29:38;7.90;99.90
52030;DHT22;38043;53.224;6.580;2023-02-12T18:32:04;7.90;99.90
52030;DHT22;38043;53.224;6.580;2023-02-12T18:34:30;7.90;99.90
52030;DHT22;38043;53.224;6.580;2023-02-12T18:36:55;7.90;99.90
52030;DHT22;38043;53.224;6.580;2023-02-12T18:39:22;7.90;99.90
52030;DHT22;38043;53.224;6.580;2023-02-12T18:41:48;7.90;99.90
52030;DHT22;38043;53.224;6.580;2023-02-12T18:44:14;7.90;99.90
52030;DHT22;38043;53.224;6.580;2023-02-12T18:46:40;7.90;99.90
52030;DHT22;38043;53.224;6.580;2023-02-12T18:49:06;7.90;99.90
52030;DHT22;38043;53.224;6.580;2023-02-12T18:51:33;7.90;99.90
52030;DHT22;38043;53.224;6.580;2023-02-12T18:54:04;7.90;99.90
52030;DHT22;38043;53.224;6.580;2023-02-12T18:56:32;7.90;99.90